Archival Weather

Sydney Intl

Sydney, Australia (YSSY)

Report from: Sunday, February 25, 2024 5:00 AM AEDT
Current time: Thursday, April 25, 2024 4:35 AM AEST

Current weather – Weather history – Daily summaries
Weather forecast

Temperature17.0°C (62.6°F)
Dew point15.0°C (59.0°F)
Winds 5 kts (2.6 m/s, 5.8 mph) Northwest (310°)
Visibility6.2 mi. (10 km)
Clouds Sky clear
Altimeter30.06 in.Hg (1018 mB)
Relative humidity88 %
Density altitude311 ft. (95 m)
Remarks Fully automated report
No clouds detected
Flight conditions Visual Meteorological Conditions
Raw dataYSSY 241800Z AUTO 31005KT 9999 // NCD 17/15 Q1018 RF00.0/000.0
An error has occurred. This application may no longer respond until reloaded. Reload 🗙